Time;durP1;ratioP1;P1;durP2;ratioP2;P2;SDS_P1;SDS_P2;PMS_P1;PMS_P2;Temp;Humidity;BMP_temperature;BMP_pressure;BME280_temperature;BME280_humidity;BME280_pressure;Samples;Min_cycle;Max_cycle;Signal;HPM_P1;HPM_P2
2022/11/06 13:13:48;;;;;;;;;7.00;7.00;;;;;11.65;72.26;100517.25;4949899;23;45630;-77
2022/11/06 13:16:26;;;;;;;;;8.50;6.25;;;;;11.57;72.23;100535.78;4867593;29;45429;-76
2022/11/06 13:19:03;;;;;;;;;5.33;4.00;;;;;11.61;72.29;100537.53;4861082;29;47109;-75
2022/11/06 13:21:56;;;;;;;;;4.75;4.75;;;;;11.62;72.37;100515.53;4865951;29;45585;-78
2022/11/06 13:28:20;;;;;;;;;6.75;4.25;;;;;11.60;72.80;100512.06;5075531;23;45527;-74
2022/11/06 13:30:47;;;;;;;;;5.50;5.00;;;;;11.53;72.52;100498.97;4873408;29;47465;-74
2022/11/06 13:33:53;;;;;;;;;5.75;5.75;;;;;11.63;72.36;100513.78;4901558;29;45509;-75
2022/11/06 13:36:19;;;;;;;;;5.00;5.00;;;;;11.52;72.58;100503.38;4900754;29;45332;-75
2022/11/06 13:39:14;;;;;;;;;4.50;4.00;;;;;11.54;72.55;100498.06;4901959;29;45494;-75
2022/11/06 13:42:00;;;;;;;;;11.50;5.25;;;;;11.65;72.66;100512.88;4878547;29;46871;-76
2022/11/06 13:44:29;;;;;;;;;6.50;5.50;;;;;11.61;72.59;100489.19;4899006;29;45811;-76
2022/11/06 13:47:03;;;;;;;;;7.50;7.25;;;;;11.57;72.65;100496.25;4905862;28;45422;-77
2022/11/06 13:50:05;;;;;;;;;5.00;4.75;;;;;11.71;72.66;100493.47;4884532;29;45696;-77
2022/11/06 13:52:42;;;;;;;;;9.00;9.00;;;;;11.65;72.95;100482.97;4901970;28;46567;-77
2022/11/06 13:55:16;;;;;;;;;7.50;6.50;;;;;11.73;72.66;100502.22;4890804;29;45793;-77
2022/11/06 13:58:10;;;;;;;;;5.00;5.00;;;;;11.71;72.59;100496.09;4889441;29;45679;-74
2022/11/06 14:00:59;;;;;;;;;6.25;6.00;;;;;11.55;73.23;100457.63;4884687;29;46396;-77
2022/11/06 14:03:37;;;;;;;;;6.25;5.00;;;;;11.67;73.16;100484.69;4895061;28;48199;-77
2022/11/06 14:06:28;;;;;;;;;7.00;6.00;;;;;11.70;72.58;100503.13;4880705;29;45628;-77
2022/11/06 14:09:07;;;;;;;;;5.00;5.00;;;;;11.45;72.71;100449.81;4900330;29;45534;-78
2022/11/06 14:12:05;;;;;;;;;8.25;7.00;;;;;11.82;72.50;100502.13;4884239;29;45476;-77
2022/11/06 14:15:06;;;;;;;;;8.00;6.00;;;;;11.62;72.57;100485.66;4852045;29;47689;-78
2022/11/06 14:17:30;;;;;;;;;6.00;5.25;;;;;11.69;72.83;100490.84;4896730;28;45296;-76
2022/11/06 14:20:24;;;;;;;;;6.75;6.00;;;;;11.53;72.71;100467.31;4884578;29;45368;-76
2022/11/06 14:22:49;;;;;;;;;7.00;6.00;;;;;11.65;73.22;100488.25;4900720;29;45769;-74
2022/11/06 14:25:27;;;;;;;;;5.50;5.50;;;;;11.88;72.81;100506.47;4884447;29;47147;-74
2022/11/06 14:27:52;;;;;;;;;5.50;5.50;;;;;11.90;72.86;100508.19;4883704;29;45327;-75
2022/11/06 14:30:30;;;;;;;;;7.50;7.25;;;;;11.89;72.79;100500.28;4901304;29;45233;-74
2022/11/06 14:32:59;;;;;;;;;6.75;5.50;;;;;11.76;72.68;100473.19;4907278;28;45549;-77
2022/11/06 14:35:27;;;;;;;;;7.25;6.50;;;;;11.91;72.96;100493.22;4901131;29;45543;-75
2022/11/06 14:38:08;;;;;;;;;6.50;6.50;;;;;11.65;72.79;100452.22;4900309;29;45399;-78
2022/11/06 14:41:07;;;;;;;;;9.75;7.75;;;;;11.90;72.85;100495.00;4901506;28;45538;-78
2022/11/06 14:43:35;;;;;;;;;7.75;6.50;;;;;11.79;73.04;100488.09;4889771;28;45530;-78
2022/11/06 14:46:54;;;;;;;;;;;;;;;;;;;;;
2022/11/06 14:53:46;;;;;;;;;;;;;;;;;;;;;
2022/11/06 15:10:53;;;;;;;;;13.25;11.00;;;;;12.27;73.50;100514.72;4943151;23;45880;-78
2022/11/06 15:17:15;;;;;;;;;7.00;5.50;;;;;12.23;72.91;100516.53;4878888;29;45468;-76
2022/11/06 15:20:01;;;;;;;;;5.00;5.00;;;;;12.09;73.35;100498.25;4852347;29;45529;-76
2022/11/06 15:22:51;;;;;;;;;6.50;6.00;;;;;11.91;73.25;100469.50;4857646;29;47359;-78
2022/11/06 15:26:05;;;;;;;;;9.50;7.75;;;;;12.24;73.19;100530.59;4867130;29;45349;-78
2022/11/06 15:28:53;;;;;;;;;5.67;5.67;;;;;12.20;73.66;100535.06;4865994;29;46500;-77
2022/11/06 15:31:29;;;;;;;;;9.00;7.33;;;;;11.99;73.61;100496.63;4863071;29;45561;-77
2022/11/06 15:34:02;;;;;;;;;5.00;5.00;;;;;12.25;73.88;100529.72;4867746;29;48209;-76
2022/11/06 15:36:33;;;;;;;;;6.75;6.00;;;;;12.11;73.39;100519.38;4868115;29;45832;-77
2022/11/06 15:38:59;;;;;;;;;7.00;7.00;;;;;12.05;73.87;100501.81;4867474;29;45276;-76
2022/11/06 15:41:25;;;;;;;;;7.50;6.25;;;;;12.16;74.12;100516.63;4869365;29;45546;-76
2022/11/06 15:43:53;;;;;;;;;5.75;4.50;;;;;12.05;73.88;100506.22;4884860;29;45408;-76
2022/11/06 15:46:27;;;;;;;;;6.00;4.00;;;;;12.13;73.92;100523.72;4887604;29;45399;-76
2022/11/06 15:49:07;;;;;;;;;5.67;5.33;;;;;12.19;73.99;100532.44;4890855;29;45356;-75
2022/11/06 15:51:38;;;;;;;;;4.00;4.00;;;;;12.05;74.42;100511.50;4867264;29;45481;-76
2022/11/06 15:54:03;;;;;;;;;5.75;4.00;;;;;12.08;74.08;100507.09;4884748;29;46128;-76
2022/11/06 15:56:36;;;;;;;;;4.75;4.75;;;;;12.33;73.99;100554.25;4884799;29;45405;-77
2022/11/06 15:59:11;;;;;;;;;5.75;4.50;;;;;12.15;74.15;100507.84;4883439;29;45357;-77
2022/11/06 16:01:38;;;;;;;;;3.75;3.75;;;;;12.34;74.10;100541.00;4846232;29;45712;-77
2022/11/06 16:04:10;;;;;;;;;4.33;4.00;;;;;12.10;74.42;100484.16;4899075;29;47667;-76
2022/11/06 16:06:35;;;;;;;;;5.50;4.75;;;;;12.29;74.16;100518.22;4903196;29;45387;-76
2022/11/06 16:09:02;;;;;;;;;6.00;5.00;;;;;12.18;74.21;100491.97;4885289;29;45495;-76
2022/11/06 16:11:28;;;;;;;;;5.25;5.25;;;;;12.38;74.49;100517.22;4885679;29;45540;-78
2022/11/06 16:13:53;;;;;;;;;3.25;3.00;;;;;12.46;74.58;100526.78;4902403;29;45845;-75
2022/11/06 16:16:39;;;;;;;;;4.33;4.00;;;;;12.48;74.52;100543.47;4902353;29;45563;-76
2022/11/06 16:19:16;;;;;;;;;6.33;6.33;;;;;12.34;74.60;100519.03;4901870;29;45727;-76
2022/11/06 16:21:52;;;;;;;;;6.00;5.00;;;;;12.31;74.65;100519.94;4902639;29;45423;-76
2022/11/06 16:24:17;;;;;;;;;5.00;5.00;;;;;12.32;74.52;100513.78;4903017;29;46172;-77
2022/11/06 16:26:47;;;;;;;;;7.00;6.75;;;;;12.22;74.79;100503.38;4885158;29;45464;-76
2022/11/06 16:29:27;;;;;;;;;6.00;6.00;;;;;12.16;74.24;100500.81;4902009;29;45329;-77
2022/11/06 16:32:12;;;;;;;;;9.00;6.00;;;;;12.21;74.85;100506.88;4902617;29;45339;-75
2022/11/06 16:34:42;;;;;;;;;5.50;5.50;;;;;12.25;74.79;100535.00;4902217;29;46187;-75
2022/11/06 16:37:34;;;;;;;;;6.25;6.00;;;;;12.41;75.14;100557.66;4902485;29;45665;-76
2022/11/06 16:40:00;;;;;;;;;10.50;8.00;;;;;12.35;75.20;100549.81;4879361;29;45856;-75
2022/11/06 16:42:25;;;;;;;;;9.50;8.00;;;;;12.46;75.32;100569.00;4887178;29;45417;-75
2022/11/06 16:45:18;;;;;;;;;8.25;8.00;;;;;12.35;75.43;100540.13;4901754;29;45432;-75
2022/11/06 16:48:06;;;;;;;;;6.75;6.75;;;;;12.52;75.09;100565.41;4891926;29;45498;-75
2022/11/06 16:50:44;;;;;;;;;7.25;7.25;;;;;12.54;75.16;100559.22;4901985;29;45679;-75
2022/11/06 16:53:11;;;;;;;;;5.25;4.25;;;;;12.51;75.26;100556.63;4901926;29;45539;-75
2022/11/06 16:55:36;;;;;;;;;5.00;5.00;;;;;12.37;75.64;100532.16;4902304;29;45446;-75
2022/11/06 16:58:02;;;;;;;;;6.75;6.00;;;;;12.34;75.55;100519.88;4885429;29;45369;-75
2022/11/06 17:00:30;;;;;;;;;7.25;7.00;;;;;12.55;75.47;100552.16;4885058;29;45398;-75
2022/11/06 17:03:03;;;;;;;;;10.25;7.75;;;;;12.53;75.40;100540.75;4884720;29;45625;-76
2022/11/06 17:05:32;;;;;;;;;5.25;5.25;;;;;12.55;75.75;100537.19;4902374;29;46541;-75
2022/11/06 17:08:25;;;;;;;;;6.00;5.00;;;;;12.51;76.11;100537.25;4902011;29;45705;-76
2022/11/06 17:10:56;;;;;;;;;9.25;7.75;;;;;12.34;75.63;100508.47;4900784;29;45540;-75
2022/11/06 17:13:30;;;;;;;;;9.00;7.00;;;;;12.42;75.89;100527.69;4902138;29;45631;-76
2022/11/06 17:16:03;;;;;;;;;8.00;8.00;;;;;12.51;76.11;100548.69;4902738;29;46562;-75
2022/11/06 17:18:35;;;;;;;;;8.00;8.00;;;;;12.49;76.33;100544.34;4895245;29;45499;-74
2022/11/06 17:21:26;;;;;;;;;10.25;8.25;;;;;12.33;76.30;100525.19;4904235;29;45304;-75
2022/11/06 17:23:52;;;;;;;;;8.00;8.00;;;;;12.27;76.72;100527.91;4903593;29;45430;-75
2022/11/06 17:26:26;;;;;;;;;7.25;6.00;;;;;12.27;76.81;100535.81;4902139;29;45424;-75
2022/11/06 17:28:53;;;;;;;;;8.00;7.00;;;;;12.32;76.57;100526.97;4903822;29;45267;-75
2022/11/06 17:31:19;;;;;;;;;5.75;5.00;;;;;12.19;76.81;100516.59;4904475;29;45442;-76
2022/11/06 17:33:45;;;;;;;;;7.00;6.25;;;;;12.29;76.53;100561.31;4886251;29;45538;-75
2022/11/06 17:36:20;;;;;;;;;7.50;6.00;;;;;12.24;76.87;100549.06;4885829;29;46975;-75
2022/11/06 17:38:46;;;;;;;;;10.00;8.00;;;;;12.21;77.00;100555.25;4885897;29;45327;-75
2022/11/06 17:41:12;;;;;;;;;8.75;7.75;;;;;12.26;77.00;100568.41;4902899;28;45583;-75
2022/11/06 17:43:38;;;;;;;;;7.50;7.00;;;;;12.28;77.27;100574.53;4901806;29;45523;-76
2022/11/06 17:46:04;;;;;;;;;8.00;8.00;;;;;12.14;77.36;100561.53;4901422;29;46175;-76
2022/11/06 17:48:29;;;;;;;;;11.25;9.75;;;;;12.29;77.74;100581.56;4902438;29;45342;-76
2022/11/06 17:53:39;;;;;;;;;7.00;7.00;;;;;12.32;77.41;100584.16;4902727;29;45442;-75
2022/11/06 17:56:05;;;;;;;;;8.75;8.50;;;;;12.44;77.54;100609.53;4902731;29;46460;-75
2022/11/06 17:58:32;;;;;;;;;7.50;6.00;;;;;12.29;77.57;100585.06;4903098;29;45316;-75
2022/11/06 18:01:09;;;;;;;;;6.00;6.00;;;;;12.35;77.75;100594.69;4886059;29;45443;-75
2022/11/06 18:03:40;;;;;;;;;8.25;6.00;;;;;12.39;77.58;100584.97;4885721;29;45384;-75
2022/11/06 18:06:09;;;;;;;;;6.00;5.25;;;;;12.49;78.02;100605.06;4902898;29;46603;-76
2022/11/06 18:08:34;;;;;;;;;7.25;6.00;;;;;12.33;77.54;100578.88;4902624;28;45450;-75
2022/11/06 18:11:02;;;;;;;;;8.75;6.75;;;;;12.41;78.04;100588.47;4903072;29;45157;-75
2022/11/06 18:13:29;;;;;;;;;8.00;6.00;;;;;12.34;77.91;100593.81;4902793;29;45319;-75
2022/11/06 18:15:54;;;;;;;;;6.75;6.00;;;;;12.34;78.13;100590.28;4902867;29;46379;-75
2022/11/06 18:18:19;;;;;;;;;7.50;7.50;;;;;12.39;78.13;100588.47;4901107;29;45395;-75
2022/11/06 18:20:45;;;;;;;;;8.25;7.75;;;;;12.43;78.00;100600.75;4885920;29;45496;-75
2022/11/06 18:23:11;;;;;;;;;9.75;7.50;;;;;12.43;78.05;100598.09;4904525;29;45487;-75
2022/11/06 18:25:37;;;;;;;;;7.25;6.00;;;;;12.46;77.91;100616.53;4889062;29;47951;-76
2022/11/06 18:28:02;;;;;;;;;9.25;9.25;;;;;12.46;78.23;100605.97;4906029;29;45344;-76
2022/11/06 18:30:28;;;;;;;;;9.00;7.00;;;;;12.53;77.95;100615.53;4906321;29;45421;-75
2022/11/06 18:32:53;;;;;;;;;4.25;4.00;;;;;12.39;78.26;100596.38;4905853;29;45269;-75
2022/11/06 18:35:18;;;;;;;;;7.33;7.00;;;;;12.44;77.96;100612.16;4906012;29;45401;-75
2022/11/06 18:37:44;;;;;;;;;7.00;7.00;;;;;12.50;78.26;100615.59;4904336;29;45283;-75
2022/11/06 18:40:10;;;;;;;;;9.75;8.75;;;;;12.52;78.37;100620.84;4887324;29;45849;-75
2022/11/06 18:42:35;;;;;;;;;9.75;7.75;;;;;12.45;78.33;100613.91;4904515;28;45354;-75
2022/11/06 18:45:01;;;;;;;;;8.50;8.50;;;;;12.56;78.11;100623.44;4905904;29;45995;-75
2022/11/06 18:47:26;;;;;;;;;9.00;8.00;;;;;12.57;78.23;100609.34;4899051;28;45277;-76
2022/11/06 18:49:51;;;;;;;;;8.50;7.50;;;;;12.62;78.47;100626.91;4906138;29;45162;-75
2022/11/06 18:52:17;;;;;;;;;6.25;6.25;;;;;12.56;78.08;100619.91;4905474;29;45222;-75
2022/11/06 18:54:42;;;;;;;;;9.00;7.75;;;;;12.72;78.23;100647.88;4905675;29;46166;-75
2022/11/06 18:57:07;;;;;;;;;9.25;7.75;;;;;12.64;78.07;100636.53;4905767;29;45221;-76
2022/11/06 18:59:33;;;;;;;;;9.00;8.00;;;;;12.70;78.27;100643.50;4905966;29;45353;-75
2022/11/06 19:01:58;;;;;;;;;5.00;4.75;;;;;12.67;78.72;100643.53;4905465;28;45528;-75
2022/11/06 19:04:26;;;;;;;;;10.00;9.00;;;;;12.61;78.38;100630.41;4888508;29;46165;-75
2022/11/06 19:06:52;;;;;;;;;10.00;7.75;;;;;12.70;78.31;100644.38;4888119;29;45800;-75
2022/11/06 19:09:17;;;;;;;;;6.00;6.00;;;;;12.61;78.78;100633.06;4888347;29;45526;-76
2022/11/06 19:11:43;;;;;;;;;7.50;7.50;;;;;12.76;78.20;100660.13;4905340;29;45261;-75
2022/11/06 19:14:08;;;;;;;;;10.25;7.75;;;;;12.70;78.52;100652.31;4905265;29;45332;-75
2022/11/06 19:16:33;;;;;;;;;7.75;7.50;;;;;12.74;78.71;100650.47;4905213;29;45336;-76
2022/11/06 19:19:03;;;;;;;;;9.50;9.25;;;;;12.76;78.59;100664.56;4897541;29;45378;-76
2022/11/06 19:21:29;;;;;;;;;8.75;7.75;;;;;12.66;78.42;100650.59;4905017;29;45489;-76
2022/11/06 19:23:58;;;;;;;;;6.75;6.25;;;;;12.69;78.50;100666.38;4887730;29;48207;-75
2022/11/06 19:26:24;;;;;;;;;7.75;6.75;;;;;12.80;78.76;100660.94;4887906;29;45273;-76
2022/11/06 19:28:50;;;;;;;;;9.00;7.25;;;;;12.70;78.29;100657.59;4905286;29;45161;-75
2022/11/06 19:31:16;;;;;;;;;9.50;8.25;;;;;12.86;78.74;100686.44;4887796;29;45471;-75
2022/11/06 19:33:42;;;;;;;;;7.67;6.00;;;;;12.70;78.74;100652.31;4886868;29;45534;-75
2022/11/06 19:36:07;;;;;;;;;8.50;7.25;;;;;12.77;78.52;100675.06;4887390;29;45666;-77
2022/11/06 19:38:38;;;;;;;;;8.25;8.25;;;;;12.90;78.31;100680.19;4904976;29;45296;-75
2022/11/06 19:41:04;;;;;;;;;8.75;6.25;;;;;12.84;78.65;100682.94;4889361;28;45352;-74
2022/11/06 19:43:35;;;;;;;;;7.00;6.00;;;;;12.88;78.50;100677.56;4887766;29;47175;-75
2022/11/06 19:46:02;;;;;;;;;6.33;6.33;;;;;12.86;78.16;100683.78;4888083;28;45483;-75
2022/11/06 19:48:29;;;;;;;;;6.33;5.33;;;;;12.97;78.70;100695.94;4914720;28;45382;-76
2022/11/06 19:50:54;;;;;;;;;7.00;6.67;;;;;12.88;78.17;100685.50;4887755;29;45479;-75
2022/11/06 19:53:21;;;;;;;;;7.00;6.75;;;;;12.77;78.03;100661.88;4904379;29;46431;-75
2022/11/06 19:55:47;;;;;;;;;9.50;8.00;;;;;12.92;78.01;100678.41;4904814;29;45378;-76
2022/11/06 19:58:18;;;;;;;;;7.00;6.33;;;;;13.06;78.47;100700.22;4904745;29;45467;-75
2022/11/06 20:00:44;;;;;;;;;5.25;5.25;;;;;13.06;78.36;100687.00;4904771;29;45244;-76
2022/11/06 20:03:14;;;;;;;;;6.75;5.25;;;;;13.14;78.63;100693.03;4904589;29;45522;-75
2022/11/06 20:05:40;;;;;;;;;7.25;6.00;;;;;13.11;78.39;100684.31;4904331;29;45301;-75
2022/11/06 20:08:06;;;;;;;;;6.00;4.67;;;;;13.19;77.98;100707.06;4904201;28;45324;-76
2022/11/06 20:10:33;;;;;;;;;8.00;7.00;;;;;13.08;78.16;100701.06;4899608;29;45272;-75
2022/11/06 20:12:59;;;;;;;;;7.00;6.67;;;;;13.21;78.34;100721.16;4885658;29;46114;-76
2022/11/06 20:15:25;;;;;;;;;5.00;5.00;;;;;13.20;78.06;100707.94;4885294;29;45374;-76
2022/11/06 20:17:50;;;;;;;;;6.00;5.00;;;;;13.27;78.36;100724.63;4883562;28;45663;-75
2022/11/06 20:20:15;;;;;;;;;7.00;5.67;;;;;13.16;78.12;100703.63;4888624;29;45639;-76
2022/11/06 20:22:41;;;;;;;;;7.00;5.75;;;;;13.37;77.84;100748.25;4887142;29;47641;-75
2022/11/06 20:25:07;;;;;;;;;6.33;4.33;;;;;13.35;77.88;100733.31;4887173;29;45194;-75
2022/11/06 20:27:33;;;;;;;;;4.00;3.67;;;;;13.23;77.90;100716.72;4904604;29;45326;-76
2022/11/06 20:29:58;;;;;;;;;5.00;3.00;;;;;13.31;77.61;100723.66;4886794;29;45419;-75
2022/11/06 20:32:23;;;;;;;;;5.33;5.00;;;;;13.22;77.48;100711.44;4904323;29;45395;-76
2022/11/06 20:34:49;;;;;;;;;6.33;6.00;;;;;13.29;77.34;100726.34;4904021;29;45430;-75
2022/11/06 20:37:14;;;;;;;;;6.00;6.00;;;;;13.28;77.65;100726.38;4904226;29;45346;-75
2022/11/06 20:39:40;;;;;;;;;2.00;1.33;;;;;13.34;77.54;100734.19;4903741;29;45443;-76
2022/11/06 20:42:06;;;;;;;;;5.33;4.00;;;;;13.25;77.22;100729.91;4904384;28;46266;-75
2022/11/06 20:44:31;;;;;;;;;6.00;6.00;;;;;13.28;77.54;100752.81;4903709;29;45430;-75
2022/11/06 20:46:57;;;;;;;;;6.33;5.33;;;;;13.18;77.46;100742.34;4911967;28;45491;-75
2022/11/06 20:49:22;;;;;;;;;5.00;4.67;;;;;13.28;77.36;100755.44;4906209;28;45325;-74
2022/11/06 20:51:47;;;;;;;;;5.67;5.00;;;;;13.20;77.00;100742.31;4903547;29;46148;-76
2022/11/06 20:54:13;;;;;;;;;4.00;4.00;;;;;13.17;77.44;100753.78;4870073;29;45434;-75
2022/11/06 20:56:38;;;;;;;;;8.00;6.33;;;;;13.21;76.99;100759.94;4885281;29;45452;-75
2022/11/06 20:59:04;;;;;;;;;6.00;5.33;;;;;13.15;77.18;100750.31;4867888;29;45388;-75
2022/11/06 21:01:29;;;;;;;;;5.50;4.75;;;;;13.25;77.15;100767.78;4884959;29;45283;-75
2022/11/06 21:03:56;;;;;;;;;4.33;3.33;;;;;13.21;77.11;100770.50;4867980;29;45268;-75
2022/11/06 21:06:23;;;;;;;;;5.00;4.00;;;;;13.09;77.29;100750.38;4867509;29;45275;-75
2022/11/06 21:08:49;;;;;;;;;4.33;4.33;;;;;13.19;77.09;100770.50;4884486;29;45446;-76
2022/11/06 21:11:20;;;;;;;;;2.00;2.00;;;;;13.06;76.91;100758.38;4884699;29;46504;-76
2022/11/06 21:13:47;;;;;;;;;8.00;7.00;;;;;12.99;76.84;100749.66;4889697;29;45247;-76
2022/11/06 21:16:16;;;;;;;;;7.25;5.00;;;;;13.09;76.94;100768.88;4903807;29;45305;-75
2022/11/06 21:18:42;;;;;;;;;6.33;4.67;;;;;13.00;76.76;100747.88;4908434;28;45267;-76
2022/11/06 21:21:13;;;;;;;;;5.25;3.75;;;;;13.00;77.13;100756.69;4903214;29;45542;-75
2022/11/06 21:23:40;;;;;;;;;7.00;6.00;;;;;13.14;77.32;100782.91;4886220;29;45574;-76
2022/11/06 21:26:12;;;;;;;;;6.67;3.67;;;;;13.12;77.06;100786.47;4903659;29;45255;-75
2022/11/06 21:28:38;;;;;;;;;4.50;4.00;;;;;13.08;77.05;100779.50;4886532;29;45478;-75
2022/11/06 21:31:08;;;;;;;;;6.00;5.00;;;;;12.93;76.90;100773.50;4903212;29;45571;-75
2022/11/06 21:33:33;;;;;;;;;4.25;3.25;;;;;13.10;77.10;100804.16;4886434;29;45472;-75
2022/11/06 21:36:07;;;;;;;;;4.00;4.00;;;;;12.96;77.19;100781.41;4903201;29;45236;-75
2022/11/06 21:38:33;;;;;;;;;5.25;3.25;;;;;13.01;76.74;100802.47;4903434;29;45305;-76
2022/11/06 21:40:58;;;;;;;;;4.75;4.00;;;;;12.94;77.02;100790.25;4902696;28;47390;-75
2022/11/06 21:43:29;;;;;;;;;7.50;6.50;;;;;12.85;76.47;100782.44;4903426;29;45149;-75
2022/11/06 21:45:55;;;;;;;;;3.33;3.33;;;;;12.95;76.96;100803.44;4886386;29;45346;-75
2022/11/06 21:48:20;;;;;;;;;3.50;3.50;;;;;12.90;77.20;100802.63;4921735;28;45351;-75
2022/11/06 21:50:45;;;;;;;;;5.25;5.25;;;;;12.80;76.61;100787.75;4907045;28;46180;-75
2022/11/06 21:55:58;;;;;;;;;6.75;4.00;;;;;12.83;76.79;100805.34;4903215;29;45401;-75
2022/11/06 21:58:23;;;;;;;;;5.50;4.50;;;;;12.66;77.01;100772.09;4888356;29;45306;-75
2022/11/06 22:00:49;;;;;;;;;5.00;3.00;;;;;12.84;76.69;100812.41;4906381;29;46373;-76
2022/11/06 22:03:14;;;;;;;;;4.50;3.75;;;;;12.70;76.92;100797.59;4906448;29;45167;-76
2022/11/06 22:05:40;;;;;;;;;3.67;2.67;;;;;12.75;76.94;100798.41;4906593;29;45216;-76
2022/11/06 22:08:06;;;;;;;;;2.33;2.33;;;;;12.79;76.80;100812.44;4906059;29;45246;-76
2022/11/06 22:10:31;;;;;;;;;3.00;2.00;;;;;12.71;76.52;100801.97;4906205;28;45243;-76
2022/11/06 22:12:57;;;;;;;;;3.00;3.00;;;;;12.87;76.71;100831.72;4906477;29;45244;-76
2022/11/06 22:15:22;;;;;;;;;3.67;2.00;;;;;12.72;76.62;100809.00;4906384;29;45261;-76
2022/11/06 22:17:47;;;;;;;;;4.67;3.00;;;;;12.82;76.74;100824.75;4913534;28;45398;-76
2022/11/06 22:20:13;;;;;;;;;5.00;3.75;;;;;12.84;76.77;100822.97;4890673;29;47012;-76
2022/11/06 22:22:38;;;;;;;;;4.00;3.00;;;;;12.86;76.40;100832.63;4888910;29;45359;-76
2022/11/06 22:25:04;;;;;;;;;8.75;4.25;;;;;12.70;76.34;100802.00;4906070;29;45446;-76
2022/11/06 22:27:30;;;;;;;;;5.75;4.00;;;;;12.84;76.54;100838.81;4906356;29;45479;-76
2022/11/06 22:29:55;;;;;;;;;5.50;4.00;;;;;12.81;76.53;100845.00;4888800;29;47154;-76
2022/11/06 22:32:21;;;;;;;;;5.00;5.00;;;;;12.65;76.39;100817.88;4906139;29;45462;-76
2022/11/06 22:34:46;;;;;;;;;2.67;2.00;;;;;12.74;76.67;100841.53;4906023;29;45304;-76
2022/11/06 22:37:11;;;;;;;;;6.00;4.00;;;;;12.76;76.57;100845.06;4905963;29;45356;-75
2022/11/06 22:39:37;;;;;;;;;4.00;3.00;;;;;12.71;76.58;100838.06;4905855;29;46346;-76
2022/11/06 22:42:02;;;;;;;;;7.00;4.33;;;;;12.77;76.75;100840.63;4907274;28;45366;-76
2022/11/06 22:44:31;;;;;;;;;5.33;4.00;;;;;12.82;76.51;100861.72;4906157;29;45443;-76
2022/11/06 22:46:57;;;;;;;;;3.00;2.00;;;;;12.64;76.45;100812.59;4913472;28;45188;-76
2022/11/06 22:49:22;;;;;;;;;4.00;2.00;;;;;12.67;76.65;100829.31;4906595;28;46857;-76
2022/11/06 22:51:47;;;;;;;;;3.67;3.67;;;;;12.75;76.73;100829.22;4905535;29;45161;-76
2022/11/06 22:54:13;;;;;;;;;5.00;3.00;;;;;12.57;76.29;100807.41;4888558;29;45289;-76
2022/11/06 22:56:38;;;;;;;;;3.00;2.67;;;;;12.78;76.43;100855.63;4888621;29;45471;-75
2022/11/06 22:59:07;;;;;;;;;3.00;3.00;;;;;12.74;76.71;100835.41;4888397;29;47110;-76
2022/11/06 23:01:33;;;;;;;;;4.33;3.00;;;;;12.57;76.42;100811.81;4905577;29;45414;-76
2022/11/06 23:04:03;;;;;;;;;5.00;3.00;;;;;12.62;76.40;100819.69;4888367;29;45280;-76
2022/11/06 23:06:29;;;;;;;;;3.00;3.00;;;;;12.58;76.44;100818.84;4905229;29;45446;-76
2022/11/06 23:08:55;;;;;;;;;5.67;3.33;;;;;12.63;76.34;100824.94;4904882;28;45999;-76
2022/11/06 23:11:22;;;;;;;;;5.67;3.00;;;;;12.63;76.68;100826.72;4905070;29;45378;-76
2022/11/06 23:13:48;;;;;;;;;6.00;4.00;;;;;12.75;76.23;100845.06;4905595;29;45375;-75
2022/11/06 23:16:16;;;;;;;;;1.00;1.00;;;;;12.62;76.48;100825.84;4888042;29;45308;-76
2022/11/06 23:18:42;;;;;;;;;4.33;3.00;;;;;12.60;76.60;100821.47;4914393;28;46272;-76
2022/11/06 23:21:17;;;;;;;;;3.67;2.67;;;;;12.70;76.45;100847.78;4905105;29;45281;-76
2022/11/06 23:23:44;;;;;;;;;3.00;2.00;;;;;12.65;76.62;100832.88;4888047;29;45327;-76
2022/11/06 23:26:19;;;;;;;;;4.75;2.50;;;;;12.72;76.40;100840.72;4887899;29;45469;-76
2022/11/06 23:28:45;;;;;;;;;4.33;2.00;;;;;12.62;76.18;100825.84;4887959;29;47905;-76
2022/11/06 23:31:12;;;;;;;;;3.33;3.33;;;;;12.83;76.19;100851.16;4904810;29;45325;-76
2022/11/06 23:33:38;;;;;;;;;6.00;4.00;;;;;12.82;76.37;100856.44;4905299;29;45266;-76
2022/11/06 23:36:13;;;;;;;;;5.67;3.00;;;;;12.83;76.45;100856.44;4904593;29;45463;-76
2022/11/06 23:38:39;;;;;;;;;6.33;3.67;;;;;12.86;76.33;100868.75;4904732;29;46420;-76
2022/11/06 23:43:51;;;;;;;;;4.33;3.33;;;;;12.84;76.29;100855.53;4905032;29;45163;-76
2022/11/06 23:46:18;;;;;;;;;4.33;3.67;;;;;12.80;75.94;100837.97;4891570;28;45205;-76
2022/11/06 23:48:43;;;;;;;;;5.00;3.33;;;;;12.84;75.93;100847.63;4912024;28;46248;-75
2022/11/06 23:51:09;;;;;;;;;5.00;4.00;;;;;12.88;76.24;100857.25;4904435;29;45332;-75
2022/11/06 23:53:34;;;;;;;;;2.00;2.00;;;;;12.95;75.84;100864.22;4904835;29;45438;-77
2022/11/06 23:56:04;;;;;;;;;5.33;5.33;;;;;12.78;76.18;100839.78;4904595;29;45256;-76
2022/11/06 23:58:30;;;;;;;;;4.00;2.67;;;;;12.81;76.25;100839.72;4904535;29;46436;-75
